sensor_id;sensor_type;location;lat;lon;timestamp;P1;durP1;ratioP1;P2;durP2;ratioP2
840;SDS011;406;48.566;13.450;2022-12-18T00:00:57;41.95;;;21.63;;
840;SDS011;406;48.566;13.450;2022-12-18T00:03:22;35.00;;;23.57;;
840;SDS011;406;48.566;13.450;2022-12-18T00:05:48;43.57;;;23.03;;
840;SDS011;406;48.566;13.450;2022-12-18T00:08:15;48.92;;;25.13;;
840;SDS011;406;48.566;13.450;2022-12-18T00:10:41;46.20;;;22.57;;
840;SDS011;406;48.566;13.450;2022-12-18T00:13:07;41.22;;;23.75;;
840;SDS011;406;48.566;13.450;2022-12-18T00:15:33;45.97;;;26.70;;
840;SDS011;406;48.566;13.450;2022-12-18T00:17:59;44.03;;;26.20;;
840;SDS011;406;48.566;13.450;2022-12-18T00:20:25;46.53;;;25.53;;
840;SDS011;406;48.566;13.450;2022-12-18T00:22:53;38.63;;;22.73;;
840;SDS011;406;48.566;13.450;2022-12-18T00:25:19;45.38;;;24.90;;
840;SDS011;406;48.566;13.450;2022-12-18T00:27:45;48.90;;;26.00;;
840;SDS011;406;48.566;13.450;2022-12-18T00:30:12;45.00;;;26.20;;
840;SDS011;406;48.566;13.450;2022-12-18T00:32:38;52.07;;;28.77;;
840;SDS011;406;48.566;13.450;2022-12-18T00:35:04;38.03;;;22.53;;
840;SDS011;406;48.566;13.450;2022-12-18T00:37:30;48.05;;;27.70;;
840;SDS011;406;48.566;13.450;2022-12-18T00:39:55;44.60;;;24.03;;
840;SDS011;406;48.566;13.450;2022-12-18T00:42:21;46.33;;;23.63;;
840;SDS011;406;48.566;13.450;2022-12-18T00:45:05;41.80;;;23.25;;
840;SDS011;406;48.566;13.450;2022-12-18T00:47:31;53.65;;;28.83;;
840;SDS011;406;48.566;13.450;2022-12-18T00:49:57;38.20;;;24.40;;
840;SDS011;406;48.566;13.450;2022-12-18T00:52:22;44.60;;;27.50;;
840;SDS011;406;48.566;13.450;2022-12-18T00:54:48;49.00;;;28.17;;
840;SDS011;406;48.566;13.450;2022-12-18T00:57:13;43.53;;;22.73;;
840;SDS011;406;48.566;13.450;2022-12-18T00:59:38;39.57;;;23.47;;
840;SDS011;406;48.566;13.450;2022-12-18T01:02:04;34.07;;;21.20;;
840;SDS011;406;48.566;13.450;2022-12-18T01:04:31;42.43;;;24.40;;
840;SDS011;406;48.566;13.450;2022-12-18T01:06:57;42.20;;;19.52;;
840;SDS011;406;48.566;13.450;2022-12-18T01:09:22;48.13;;;27.13;;
840;SDS011;406;48.566;13.450;2022-12-18T01:11:50;42.50;;;21.45;;
840;SDS011;406;48.566;13.450;2022-12-18T01:14:15;43.77;;;25.07;;
840;SDS011;406;48.566;13.450;2022-12-18T01:16:41;38.43;;;22.73;;
840;SDS011;406;48.566;13.450;2022-12-18T01:19:06;37.43;;;21.67;;
840;SDS011;406;48.566;13.450;2022-12-18T01:21:32;42.70;;;22.00;;
840;SDS011;406;48.566;13.450;2022-12-18T01:24:01;40.90;;;23.40;;
840;SDS011;406;48.566;13.450;2022-12-18T01:26:26;40.53;;;23.00;;
840;SDS011;406;48.566;13.450;2022-12-18T01:28:57;41.13;;;21.10;;
840;SDS011;406;48.566;13.450;2022-12-18T01:31:24;36.55;;;20.77;;
840;SDS011;406;48.566;13.450;2022-12-18T01:33:54;36.75;;;24.08;;
840;SDS011;406;48.566;13.450;2022-12-18T01:36:21;42.30;;;24.48;;
840;SDS011;406;48.566;13.450;2022-12-18T01:38:48;39.47;;;19.15;;
840;SDS011;406;48.566;13.450;2022-12-18T01:41:17;41.33;;;23.47;;
840;SDS011;406;48.566;13.450;2022-12-18T01:46:12;38.95;;;21.08;;
840;SDS011;406;48.566;13.450;2022-12-18T01:48:37;39.97;;;22.97;;
840;SDS011;406;48.566;13.450;2022-12-18T01:51:04;44.40;;;22.55;;
840;SDS011;406;48.566;13.450;2022-12-18T01:53:31;51.28;;;21.38;;
840;SDS011;406;48.566;13.450;2022-12-18T01:55:57;41.73;;;23.53;;
840;SDS011;406;48.566;13.450;2022-12-18T01:58:24;46.55;;;26.10;;
840;SDS011;406;48.566;13.450;2022-12-18T02:01:06;37.30;;;21.63;;
840;SDS011;406;48.566;13.450;2022-12-18T02:03:31;32.00;;;18.33;;
840;SDS011;406;48.566;13.450;2022-12-18T02:06:09;45.20;;;23.17;;
840;SDS011;406;48.566;13.450;2022-12-18T02:14:30;37.35;;;21.45;;
840;SDS011;406;48.566;13.450;2022-12-18T02:17:11;36.83;;;20.17;;
840;SDS011;406;48.566;13.450;2022-12-18T02:22:43;34.28;;;21.38;;
840;SDS011;406;48.566;13.450;2022-12-18T02:27:59;40.63;;;23.23;;
840;SDS011;406;48.566;13.450;2022-12-18T02:30:26;47.53;;;23.00;;
840;SDS011;406;48.566;13.450;2022-12-18T02:32:53;46.75;;;26.05;;
840;SDS011;406;48.566;13.450;2022-12-18T02:35:23;53.42;;;26.73;;
840;SDS011;406;48.566;13.450;2022-12-18T02:37:52;44.13;;;23.52;;
840;SDS011;406;48.566;13.450;2022-12-18T02:40:18;46.17;;;21.98;;
840;SDS011;406;48.566;13.450;2022-12-18T02:42:45;44.25;;;20.42;;
840;SDS011;406;48.566;13.450;2022-12-18T02:45:13;40.63;;;20.02;;
840;SDS011;406;48.566;13.450;2022-12-18T02:47:40;50.47;;;24.53;;
840;SDS011;406;48.566;13.450;2022-12-18T02:53:00;50.45;;;22.55;;
840;SDS011;406;48.566;13.450;2022-12-18T03:01:01;46.35;;;23.02;;
840;SDS011;406;48.566;13.450;2022-12-18T03:03:29;44.70;;;24.08;;
840;SDS011;406;48.566;13.450;2022-12-18T03:06:03;47.50;;;23.55;;
840;SDS011;406;48.566;13.450;2022-12-18T03:08:34;39.88;;;20.30;;
840;SDS011;406;48.566;13.450;2022-12-18T03:11:04;45.30;;;26.30;;
840;SDS011;406;48.566;13.450;2022-12-18T03:13:37;42.53;;;20.27;;
840;SDS011;406;48.566;13.450;2022-12-18T03:16:07;45.17;;;25.05;;
840;SDS011;406;48.566;13.450;2022-12-18T03:18:39;45.15;;;25.88;;
840;SDS011;406;48.566;13.450;2022-12-18T03:21:08;50.95;;;24.35;;
840;SDS011;406;48.566;13.450;2022-12-18T03:23:38;47.08;;;24.77;;
840;SDS011;406;48.566;13.450;2022-12-18T03:26:09;44.50;;;24.70;;
840;SDS011;406;48.566;13.450;2022-12-18T03:28:39;43.97;;;22.10;;
840;SDS011;406;48.566;13.450;2022-12-18T03:31:08;48.95;;;26.02;;
840;SDS011;406;48.566;13.450;2022-12-18T03:33:39;44.53;;;23.23;;
840;SDS011;406;48.566;13.450;2022-12-18T03:36:07;42.67;;;23.67;;
840;SDS011;406;48.566;13.450;2022-12-18T03:38:33;46.60;;;21.07;;
840;SDS011;406;48.566;13.450;2022-12-18T03:46:02;40.47;;;24.15;;
840;SDS011;406;48.566;13.450;2022-12-18T03:48:38;47.72;;;25.38;;
840;SDS011;406;48.566;13.450;2022-12-18T03:51:10;43.53;;;21.50;;
840;SDS011;406;48.566;13.450;2022-12-18T03:53:46;41.20;;;24.33;;
840;SDS011;406;48.566;13.450;2022-12-18T03:56:16;51.13;;;25.85;;
840;SDS011;406;48.566;13.450;2022-12-18T03:58:43;49.50;;;25.45;;
840;SDS011;406;48.566;13.450;2022-12-18T04:01:16;49.42;;;25.13;;
840;SDS011;406;48.566;13.450;2022-12-18T04:03:43;40.50;;;23.50;;
840;SDS011;406;48.566;13.450;2022-12-18T04:06:10;52.22;;;29.05;;
840;SDS011;406;48.566;13.450;2022-12-18T04:08:38;40.67;;;21.48;;
840;SDS011;406;48.566;13.450;2022-12-18T04:11:06;48.30;;;25.23;;
840;SDS011;406;48.566;13.450;2022-12-18T04:13:34;58.58;;;23.17;;
840;SDS011;406;48.566;13.450;2022-12-18T04:16:04;45.20;;;23.95;;
840;SDS011;406;48.566;13.450;2022-12-18T04:18:31;53.30;;;25.08;;
840;SDS011;406;48.566;13.450;2022-12-18T04:20:58;52.35;;;25.00;;
840;SDS011;406;48.566;13.450;2022-12-18T04:23:24;42.60;;;21.73;;
840;SDS011;406;48.566;13.450;2022-12-18T04:25:52;41.15;;;21.95;;
840;SDS011;406;48.566;13.450;2022-12-18T04:28:26;48.47;;;24.27;;
840;SDS011;406;48.566;13.450;2022-12-18T04:30:52;45.83;;;25.20;;
840;SDS011;406;48.566;13.450;2022-12-18T04:33:19;35.60;;;19.15;;
840;SDS011;406;48.566;13.450;2022-12-18T04:35:45;46.38;;;23.63;;
840;SDS011;406;48.566;13.450;2022-12-18T04:38:10;48.30;;;23.73;;
840;SDS011;406;48.566;13.450;2022-12-18T04:40:37;43.42;;;22.35;;
840;SDS011;406;48.566;13.450;2022-12-18T04:43:08;51.55;;;25.60;;
840;SDS011;406;48.566;13.450;2022-12-18T04:45:34;41.00;;;22.27;;
840;SDS011;406;48.566;13.450;2022-12-18T04:48:00;43.07;;;21.10;;
840;SDS011;406;48.566;13.450;2022-12-18T04:50:26;40.13;;;19.65;;
840;SDS011;406;48.566;13.450;2022-12-18T04:52:52;35.10;;;20.17;;
840;SDS011;406;48.566;13.450;2022-12-18T04:55:18;46.73;;;23.23;;
840;SDS011;406;48.566;13.450;2022-12-18T04:57:44;50.10;;;23.50;;
840;SDS011;406;48.566;13.450;2022-12-18T05:00:09;47.20;;;26.60;;
840;SDS011;406;48.566;13.450;2022-12-18T05:02:36;39.88;;;19.52;;
840;SDS011;406;48.566;13.450;2022-12-18T05:05:02;43.03;;;21.97;;
840;SDS011;406;48.566;13.450;2022-12-18T05:07:27;40.87;;;24.40;;
840;SDS011;406;48.566;13.450;2022-12-18T05:09:53;39.17;;;19.97;;
840;SDS011;406;48.566;13.450;2022-12-18T05:12:18;48.70;;;23.90;;
840;SDS011;406;48.566;13.450;2022-12-18T05:14:44;47.13;;;22.43;;
840;SDS011;406;48.566;13.450;2022-12-18T05:17:09;50.17;;;22.53;;
840;SDS011;406;48.566;13.450;2022-12-18T05:19:35;47.23;;;21.97;;
840;SDS011;406;48.566;13.450;2022-12-18T05:22:03;38.80;;;20.85;;
840;SDS011;406;48.566;13.450;2022-12-18T05:24:28;34.03;;;20.10;;
840;SDS011;406;48.566;13.450;2022-12-18T05:26:54;40.70;;;21.07;;
840;SDS011;406;48.566;13.450;2022-12-18T05:29:19;39.30;;;19.83;;
840;SDS011;406;48.566;13.450;2022-12-18T05:31:45;41.27;;;23.77;;
840;SDS011;406;48.566;13.450;2022-12-18T05:34:10;42.63;;;20.90;;
840;SDS011;406;48.566;13.450;2022-12-18T05:36:36;38.43;;;18.60;;
840;SDS011;406;48.566;13.450;2022-12-18T05:39:01;38.10;;;21.00;;
840;SDS011;406;48.566;13.450;2022-12-18T05:41:27;40.57;;;19.10;;
840;SDS011;406;48.566;13.450;2022-12-18T05:43:52;41.83;;;22.23;;
840;SDS011;406;48.566;13.450;2022-12-18T05:46:18;45.37;;;18.30;;
840;SDS011;406;48.566;13.450;2022-12-18T05:48:44;34.90;;;17.23;;
840;SDS011;406;48.566;13.450;2022-12-18T05:51:11;36.60;;;19.10;;
840;SDS011;406;48.566;13.450;2022-12-18T05:53:38;44.92;;;19.40;;
840;SDS011;406;48.566;13.450;2022-12-18T05:56:04;46.90;;;24.23;;
840;SDS011;406;48.566;13.450;2022-12-18T05:58:30;45.53;;;22.52;;
840;SDS011;406;48.566;13.450;2022-12-18T06:00:56;39.23;;;20.67;;
840;SDS011;406;48.566;13.450;2022-12-18T06:03:22;41.05;;;22.90;;
840;SDS011;406;48.566;13.450;2022-12-18T06:05:47;43.20;;;20.43;;
840;SDS011;406;48.566;13.450;2022-12-18T06:08:13;49.17;;;23.20;;
840;SDS011;406;48.566;13.450;2022-12-18T06:10:39;43.87;;;21.83;;
840;SDS011;406;48.566;13.450;2022-12-18T06:13:05;38.33;;;20.00;;
840;SDS011;406;48.566;13.450;2022-12-18T06:15:31;37.13;;;20.55;;
840;SDS011;406;48.566;13.450;2022-12-18T06:17:57;37.90;;;21.33;;
840;SDS011;406;48.566;13.450;2022-12-18T06:20:23;36.10;;;19.33;;
840;SDS011;406;48.566;13.450;2022-12-18T06:22:48;49.10;;;21.10;;
840;SDS011;406;48.566;13.450;2022-12-18T06:25:14;31.27;;;16.17;;
840;SDS011;406;48.566;13.450;2022-12-18T06:27:39;35.90;;;18.73;;
840;SDS011;406;48.566;13.450;2022-12-18T06:30:05;46.47;;;19.33;;
840;SDS011;406;48.566;13.450;2022-12-18T06:32:31;38.65;;;18.67;;
840;SDS011;406;48.566;13.450;2022-12-18T06:34:57;49.87;;;20.23;;
840;SDS011;406;48.566;13.450;2022-12-18T06:37:22;47.50;;;21.20;;
840;SDS011;406;48.566;13.450;2022-12-18T06:39:51;36.53;;;21.55;;
840;SDS011;406;48.566;13.450;2022-12-18T06:42:17;38.15;;;17.52;;
840;SDS011;406;48.566;13.450;2022-12-18T06:44:43;49.20;;;24.37;;
840;SDS011;406;48.566;13.450;2022-12-18T06:47:08;40.30;;;22.63;;
840;SDS011;406;48.566;13.450;2022-12-18T06:49:34;40.50;;;20.10;;
840;SDS011;406;48.566;13.450;2022-12-18T06:51:59;38.33;;;19.27;;
840;SDS011;406;48.566;13.450;2022-12-18T06:54:25;45.73;;;20.43;;
840;SDS011;406;48.566;13.450;2022-12-18T06:56:50;39.97;;;18.70;;
840;SDS011;406;48.566;13.450;2022-12-18T06:59:16;46.63;;;25.30;;
840;SDS011;406;48.566;13.450;2022-12-18T07:01:41;41.27;;;18.57;;
840;SDS011;406;48.566;13.450;2022-12-18T07:04:07;46.57;;;21.40;;
840;SDS011;406;48.566;13.450;2022-12-18T07:06:32;42.67;;;20.90;;
840;SDS011;406;48.566;13.450;2022-12-18T07:08:57;45.57;;;18.30;;
840;SDS011;406;48.566;13.450;2022-12-18T07:11:24;47.20;;;19.30;;
840;SDS011;406;48.566;13.450;2022-12-18T07:13:50;41.07;;;19.23;;
840;SDS011;406;48.566;13.450;2022-12-18T07:16:18;34.97;;;17.52;;
840;SDS011;406;48.566;13.450;2022-12-18T07:18:44;43.00;;;20.65;;
840;SDS011;406;48.566;13.450;2022-12-18T07:21:11;40.53;;;20.30;;
840;SDS011;406;48.566;13.450;2022-12-18T07:23:38;40.08;;;21.02;;
840;SDS011;406;48.566;13.450;2022-12-18T07:26:05;37.90;;;18.70;;
840;SDS011;406;48.566;13.450;2022-12-18T07:28:32;43.03;;;20.85;;
840;SDS011;406;48.566;13.450;2022-12-18T07:31:02;41.53;;;20.98;;
840;SDS011;406;48.566;13.450;2022-12-18T07:33:28;37.05;;;19.20;;
840;SDS011;406;48.566;13.450;2022-12-18T07:35:54;45.23;;;21.67;;
840;SDS011;406;48.566;13.450;2022-12-18T07:38:19;40.80;;;20.77;;
840;SDS011;406;48.566;13.450;2022-12-18T07:40:45;43.33;;;19.30;;
840;SDS011;406;48.566;13.450;2022-12-18T07:43:10;34.50;;;17.43;;
840;SDS011;406;48.566;13.450;2022-12-18T07:45:36;41.70;;;19.30;;
840;SDS011;406;48.566;13.450;2022-12-18T07:48:01;36.67;;;18.20;;
840;SDS011;406;48.566;13.450;2022-12-18T07:50:27;37.90;;;18.10;;
840;SDS011;406;48.566;13.450;2022-12-18T07:52:52;36.10;;;19.30;;
840;SDS011;406;48.566;13.450;2022-12-18T07:55:18;37.30;;;19.77;;
840;SDS011;406;48.566;13.450;2022-12-18T07:57:43;44.57;;;19.87;;
840;SDS011;406;48.566;13.450;2022-12-18T08:00:09;38.30;;;19.63;;
840;SDS011;406;48.566;13.450;2022-12-18T08:02:38;38.28;;;21.35;;
840;SDS011;406;48.566;13.450;2022-12-18T08:05:03;37.93;;;20.10;;
840;SDS011;406;48.566;13.450;2022-12-18T08:07:29;48.13;;;18.03;;
840;SDS011;406;48.566;13.450;2022-12-18T08:09:55;37.27;;;20.80;;
840;SDS011;406;48.566;13.450;2022-12-18T08:12:20;39.07;;;19.37;;
840;SDS011;406;48.566;13.450;2022-12-18T08:14:46;39.87;;;19.63;;
840;SDS011;406;48.566;13.450;2022-12-18T08:17:11;34.93;;;18.10;;
840;SDS011;406;48.566;13.450;2022-12-18T08:19:37;45.37;;;21.27;;
840;SDS011;406;48.566;13.450;2022-12-18T08:22:02;31.60;;;17.50;;
840;SDS011;406;48.566;13.450;2022-12-18T08:24:27;31.33;;;17.17;;
840;SDS011;406;48.566;13.450;2022-12-18T08:26:53;40.20;;;19.27;;
840;SDS011;406;48.566;13.450;2022-12-18T08:29:18;35.53;;;16.87;;
840;SDS011;406;48.566;13.450;2022-12-18T08:31:44;40.87;;;18.30;;
840;SDS011;406;48.566;13.450;2022-12-18T08:34:09;35.30;;;17.87;;
840;SDS011;406;48.566;13.450;2022-12-18T08:36:35;34.10;;;18.80;;
840;SDS011;406;48.566;13.450;2022-12-18T08:39:00;33.47;;;16.80;;
840;SDS011;406;48.566;13.450;2022-12-18T08:41:26;32.60;;;17.40;;
840;SDS011;406;48.566;13.450;2022-12-18T08:43:51;38.57;;;19.13;;
840;SDS011;406;48.566;13.450;2022-12-18T08:46:36;30.33;;;15.75;;
840;SDS011;406;48.566;13.450;2022-12-18T08:49:03;37.25;;;18.40;;
840;SDS011;406;48.566;13.450;2022-12-18T08:51:29;40.15;;;19.50;;
840;SDS011;406;48.566;13.450;2022-12-18T08:53:55;34.10;;;17.10;;
840;SDS011;406;48.566;13.450;2022-12-18T08:56:20;33.03;;;18.03;;
840;SDS011;406;48.566;13.450;2022-12-18T08:58:46;29.43;;;14.47;;
840;SDS011;406;48.566;13.450;2022-12-18T09:01:11;32.50;;;17.63;;
840;SDS011;406;48.566;13.450;2022-12-18T09:03:37;32.10;;;18.43;;
840;SDS011;406;48.566;13.450;2022-12-18T09:06:03;26.23;;;17.50;;
840;SDS011;406;48.566;13.450;2022-12-18T09:08:29;32.78;;;15.27;;
840;SDS011;406;48.566;13.450;2022-12-18T09:10:55;35.37;;;17.90;;
840;SDS011;406;48.566;13.450;2022-12-18T09:13:21;33.43;;;16.27;;
840;SDS011;406;48.566;13.450;2022-12-18T09:15:47;33.93;;;18.03;;
840;SDS011;406;48.566;13.450;2022-12-18T09:18:15;29.38;;;18.20;;
840;SDS011;406;48.566;13.450;2022-12-18T09:20:42;26.90;;;14.45;;
840;SDS011;406;48.566;13.450;2022-12-18T09:23:08;35.37;;;21.43;;
840;SDS011;406;48.566;13.450;2022-12-18T09:25:34;30.08;;;18.05;;
840;SDS011;406;48.566;13.450;2022-12-18T09:28:05;30.88;;;16.15;;
840;SDS011;406;48.566;13.450;2022-12-18T09:30:43;31.92;;;18.27;;
840;SDS011;406;48.566;13.450;2022-12-18T09:33:13;29.73;;;16.63;;
840;SDS011;406;48.566;13.450;2022-12-18T09:35:40;30.73;;;15.33;;
840;SDS011;406;48.566;13.450;2022-12-18T09:38:06;30.92;;;18.45;;
840;SDS011;406;48.566;13.450;2022-12-18T09:40:36;33.23;;;19.20;;
840;SDS011;406;48.566;13.450;2022-12-18T09:43:06;34.83;;;17.75;;
840;SDS011;406;48.566;13.450;2022-12-18T09:45:42;32.87;;;18.70;;
840;SDS011;406;48.566;13.450;2022-12-18T09:48:14;29.40;;;16.85;;
840;SDS011;406;48.566;13.450;2022-12-18T09:50:42;41.33;;;23.33;;
840;SDS011;406;48.566;13.450;2022-12-18T09:53:15;36.05;;;21.65;;
840;SDS011;406;48.566;13.450;2022-12-18T09:55:44;29.85;;;18.88;;
840;SDS011;406;48.566;13.450;2022-12-18T10:00:53;35.03;;;18.10;;
840;SDS011;406;48.566;13.450;2022-12-18T10:03:20;36.33;;;19.75;;
840;SDS011;406;48.566;13.450;2022-12-18T10:06:02;34.70;;;19.73;;
840;SDS011;406;48.566;13.450;2022-12-18T10:11:21;40.13;;;21.45;;
840;SDS011;406;48.566;13.450;2022-12-18T10:13:57;35.40;;;19.50;;
840;SDS011;406;48.566;13.450;2022-12-18T10:16:31;36.70;;;21.73;;
840;SDS011;406;48.566;13.450;2022-12-18T10:19:22;34.17;;;18.08;;
840;SDS011;406;48.566;13.450;2022-12-18T10:24:36;29.48;;;16.02;;
840;SDS011;406;48.566;13.450;2022-12-18T10:27:11;34.90;;;17.40;;
840;SDS011;406;48.566;13.450;2022-12-18T10:29:39;31.52;;;17.98;;
840;SDS011;406;48.566;13.450;2022-12-18T10:32:06;32.22;;;17.83;;
840;SDS011;406;48.566;13.450;2022-12-18T10:34:32;35.55;;;23.10;;
840;SDS011;406;48.566;13.450;2022-12-18T10:36:59;35.60;;;18.73;;
840;SDS011;406;48.566;13.450;2022-12-18T10:39:26;34.58;;;19.10;;
840;SDS011;406;48.566;13.450;2022-12-18T10:41:51;37.63;;;21.10;;
840;SDS011;406;48.566;13.450;2022-12-18T10:46:47;34.22;;;19.00;;
840;SDS011;406;48.566;13.450;2022-12-18T10:49:27;33.85;;;20.42;;
840;SDS011;406;48.566;13.450;2022-12-18T10:52:05;38.83;;;21.35;;
840;SDS011;406;48.566;13.450;2022-12-18T10:54:31;34.15;;;21.35;;
840;SDS011;406;48.566;13.450;2022-12-18T10:57:16;35.28;;;19.75;;
840;SDS011;406;48.566;13.450;2022-12-18T10:59:53;35.10;;;19.00;;
840;SDS011;406;48.566;13.450;2022-12-18T11:02:36;31.75;;;18.80;;
840;SDS011;406;48.566;13.450;2022-12-18T11:05:04;29.73;;;18.52;;
840;SDS011;406;48.566;13.450;2022-12-18T11:07:49;34.78;;;19.30;;
840;SDS011;406;48.566;13.450;2022-12-18T11:10:16;33.95;;;20.80;;
840;SDS011;406;48.566;13.450;2022-12-18T11:12:43;33.38;;;19.95;;
840;SDS011;406;48.566;13.450;2022-12-18T11:15:16;36.27;;;18.27;;
840;SDS011;406;48.566;13.450;2022-12-18T11:17:46;34.53;;;19.90;;
840;SDS011;406;48.566;13.450;2022-12-18T11:20:21;32.65;;;19.75;;
840;SDS011;406;48.566;13.450;2022-12-18T11:22:56;36.20;;;19.75;;
840;SDS011;406;48.566;13.450;2022-12-18T11:25:22;41.40;;;21.33;;
840;SDS011;406;48.566;13.450;2022-12-18T11:27:52;40.80;;;20.63;;
840;SDS011;406;48.566;13.450;2022-12-18T11:30:24;38.50;;;22.02;;
840;SDS011;406;48.566;13.450;2022-12-18T11:38:13;30.92;;;17.15;;
840;SDS011;406;48.566;13.450;2022-12-18T11:40:45;33.55;;;19.05;;
840;SDS011;406;48.566;13.450;2022-12-18T11:46:14;35.90;;;20.63;;
840;SDS011;406;48.566;13.450;2022-12-18T11:48:58;33.38;;;19.90;;
840;SDS011;406;48.566;13.450;2022-12-18T11:51:34;33.30;;;19.95;;
840;SDS011;406;48.566;13.450;2022-12-18T11:54:12;42.38;;;22.35;;
840;SDS011;406;48.566;13.450;2022-12-18T11:56:51;35.88;;;21.77;;
840;SDS011;406;48.566;13.450;2022-12-18T11:59:35;32.40;;;17.52;;
840;SDS011;406;48.566;13.450;2022-12-18T12:02:24;28.27;;;18.08;;
840;SDS011;406;48.566;13.450;2022-12-18T12:04:58;35.40;;;17.20;;
840;SDS011;406;48.566;13.450;2022-12-18T12:07:50;34.42;;;21.02;;
840;SDS011;406;48.566;13.450;2022-12-18T12:13:39;35.33;;;19.33;;
840;SDS011;406;48.566;13.450;2022-12-18T12:21:42;29.38;;;17.20;;
840;SDS011;406;48.566;13.450;2022-12-18T12:27:02;34.75;;;23.38;;
840;SDS011;406;48.566;13.450;2022-12-18T12:32:22;38.42;;;23.33;;
840;SDS011;406;48.566;13.450;2022-12-18T12:40:24;39.65;;;26.40;;
840;SDS011;406;48.566;13.450;2022-12-18T12:42:54;47.78;;;26.98;;
840;SDS011;406;48.566;13.450;2022-12-18T12:45:48;37.03;;;21.30;;
840;SDS011;406;48.566;13.450;2022-12-18T12:48:44;35.33;;;25.42;;
840;SDS011;406;48.566;13.450;2022-12-18T12:51:20;35.08;;;20.95;;
840;SDS011;406;48.566;13.450;2022-12-18T12:53:51;50.70;;;27.10;;
840;SDS011;406;48.566;13.450;2022-12-18T12:56:18;48.42;;;28.52;;
840;SDS011;406;48.566;13.450;2022-12-18T13:01:37;47.88;;;28.02;;
840;SDS011;406;48.566;13.450;2022-12-18T13:06:53;45.92;;;25.05;;
840;SDS011;406;48.566;13.450;2022-12-18T13:09:24;47.05;;;29.35;;
840;SDS011;406;48.566;13.450;2022-12-18T13:11:50;41.60;;;27.03;;
840;SDS011;406;48.566;13.450;2022-12-18T13:14:35;44.58;;;28.15;;
840;SDS011;406;48.566;13.450;2022-12-18T13:22:45;44.53;;;29.40;;
840;SDS011;406;48.566;13.450;2022-12-18T13:27:58;36.50;;;25.73;;
840;SDS011;406;48.566;13.450;2022-12-18T13:41:04;32.80;;;23.10;;
840;SDS011;406;48.566;13.450;2022-12-18T13:46:23;39.38;;;25.65;;
840;SDS011;406;48.566;13.450;2022-12-18T13:51:35;37.70;;;25.67;;
840;SDS011;406;48.566;13.450;2022-12-18T13:54:01;28.30;;;16.10;;
840;SDS011;406;48.566;13.450;2022-12-18T13:56:32;33.40;;;23.00;;
840;SDS011;406;48.566;13.450;2022-12-18T13:59:06;33.03;;;22.05;;
840;SDS011;406;48.566;13.450;2022-12-18T14:01:58;30.60;;;22.08;;
840;SDS011;406;48.566;13.450;2022-12-18T14:04:27;32.22;;;21.75;;
840;SDS011;406;48.566;13.450;2022-12-18T14:06:58;35.17;;;23.35;;
840;SDS011;406;48.566;13.450;2022-12-18T14:09:29;33.63;;;21.17;;
840;SDS011;406;48.566;13.450;2022-12-18T14:11:55;27.40;;;16.90;;
840;SDS011;406;48.566;13.450;2022-12-18T14:14:42;34.65;;;23.52;;
840;SDS011;406;48.566;13.450;2022-12-18T14:17:10;30.63;;;21.27;;
840;SDS011;406;48.566;13.450;2022-12-18T14:19:36;30.98;;;21.42;;
840;SDS011;406;48.566;13.450;2022-12-18T14:22:02;31.27;;;20.20;;
840;SDS011;406;48.566;13.450;2022-12-18T14:24:28;35.07;;;22.50;;
840;SDS011;406;48.566;13.450;2022-12-18T14:26:56;36.60;;;20.90;;
840;SDS011;406;48.566;13.450;2022-12-18T14:29:38;31.42;;;21.38;;
840;SDS011;406;48.566;13.450;2022-12-18T14:34:46;31.95;;;18.23;;
840;SDS011;406;48.566;13.450;2022-12-18T14:37:15;30.63;;;18.15;;
840;SDS011;406;48.566;13.450;2022-12-18T14:39:53;27.77;;;19.83;;
840;SDS011;406;48.566;13.450;2022-12-18T14:42:19;32.00;;;19.77;;
840;SDS011;406;48.566;13.450;2022-12-18T14:44:45;27.50;;;14.80;;
840;SDS011;406;48.566;13.450;2022-12-18T14:47:13;29.63;;;16.40;;
840;SDS011;406;48.566;13.450;2022-12-18T14:49:40;25.75;;;16.55;;
840;SDS011;406;48.566;13.450;2022-12-18T14:52:16;29.38;;;16.67;;
840;SDS011;406;48.566;13.450;2022-12-18T14:54:48;26.75;;;14.25;;
840;SDS011;406;48.566;13.450;2022-12-18T14:57:18;29.70;;;16.93;;
840;SDS011;406;48.566;13.450;2022-12-18T14:59:46;24.75;;;15.65;;
840;SDS011;406;48.566;13.450;2022-12-18T15:04:45;21.75;;;15.05;;
840;SDS011;406;48.566;13.450;2022-12-18T15:09:36;20.43;;;14.20;;
840;SDS011;406;48.566;13.450;2022-12-18T15:12:03;28.08;;;15.25;;
840;SDS011;406;48.566;13.450;2022-12-18T15:16:58;24.02;;;13.55;;
840;SDS011;406;48.566;13.450;2022-12-18T15:19:28;25.55;;;17.17;;
840;SDS011;406;48.566;13.450;2022-12-18T15:21:58;22.40;;;14.23;;
840;SDS011;406;48.566;13.450;2022-12-18T15:24:26;25.87;;;16.00;;
840;SDS011;406;48.566;13.450;2022-12-18T15:26:56;28.45;;;16.35;;
840;SDS011;406;48.566;13.450;2022-12-18T15:29:21;22.77;;;15.40;;
840;SDS011;406;48.566;13.450;2022-12-18T15:32:01;31.23;;;17.88;;
840;SDS011;406;48.566;13.450;2022-12-18T15:34:28;25.33;;;17.45;;
840;SDS011;406;48.566;13.450;2022-12-18T15:36:54;27.30;;;18.30;;
840;SDS011;406;48.566;13.450;2022-12-18T15:39:20;30.20;;;17.73;;
840;SDS011;406;48.566;13.450;2022-12-18T15:41:45;25.90;;;16.20;;
840;SDS011;406;48.566;13.450;2022-12-18T15:44:33;32.83;;;17.38;;
840;SDS011;406;48.566;13.450;2022-12-18T15:46:59;23.27;;;15.57;;
840;SDS011;406;48.566;13.450;2022-12-18T15:49:24;33.07;;;18.23;;
840;SDS011;406;48.566;13.450;2022-12-18T15:51:51;33.23;;;18.07;;
840;SDS011;406;48.566;13.450;2022-12-18T15:54:18;28.70;;;17.52;;
840;SDS011;406;48.566;13.450;2022-12-18T15:57:04;26.95;;;16.40;;
840;SDS011;406;48.566;13.450;2022-12-18T15:59:48;31.08;;;17.05;;
840;SDS011;406;48.566;13.450;2022-12-18T16:02:14;32.90;;;18.07;;
840;SDS011;406;48.566;13.450;2022-12-18T16:04:42;36.85;;;19.48;;
840;SDS011;406;48.566;13.450;2022-12-18T16:07:08;26.43;;;17.57;;
840;SDS011;406;48.566;13.450;2022-12-18T16:09:34;28.65;;;19.92;;
840;SDS011;406;48.566;13.450;2022-12-18T16:11:59;34.33;;;19.67;;
840;SDS011;406;48.566;13.450;2022-12-18T16:14:26;31.47;;;16.67;;
840;SDS011;406;48.566;13.450;2022-12-18T16:16:56;30.13;;;16.13;;
840;SDS011;406;48.566;13.450;2022-12-18T16:19:33;38.78;;;18.45;;
840;SDS011;406;48.566;13.450;2022-12-18T16:21:59;30.00;;;15.90;;
840;SDS011;406;48.566;13.450;2022-12-18T16:24:29;27.50;;;17.65;;
840;SDS011;406;48.566;13.450;2022-12-18T16:26:56;28.58;;;17.98;;
840;SDS011;406;48.566;13.450;2022-12-18T16:29:24;27.92;;;17.33;;
840;SDS011;406;48.566;13.450;2022-12-18T16:31:58;30.33;;;17.23;;
840;SDS011;406;48.566;13.450;2022-12-18T16:36:53;27.40;;;18.35;;
840;SDS011;406;48.566;13.450;2022-12-18T16:39:19;28.52;;;17.60;;
840;SDS011;406;48.566;13.450;2022-12-18T16:41:46;25.77;;;17.00;;
840;SDS011;406;48.566;13.450;2022-12-18T16:44:12;26.92;;;17.67;;
840;SDS011;406;48.566;13.450;2022-12-18T16:46:38;25.97;;;15.90;;
840;SDS011;406;48.566;13.450;2022-12-18T16:49:04;27.88;;;18.05;;
840;SDS011;406;48.566;13.450;2022-12-18T16:51:32;29.33;;;17.90;;
840;SDS011;406;48.566;13.450;2022-12-18T16:53:58;25.85;;;15.50;;
840;SDS011;406;48.566;13.450;2022-12-18T16:56:23;26.40;;;16.80;;
840;SDS011;406;48.566;13.450;2022-12-18T16:58:53;35.73;;;17.03;;